sensor_id;sensor_type;location;lat;lon;timestamp;P1;durP1;ratioP1;P2;durP2;ratioP2
50591;SDS011;36548;50.506;30.834;2022-12-29T00:00:20;18.03;;;14.68;;
50591;SDS011;36548;50.506;30.834;2022-12-29T00:01:31;18.68;;;13.35;;
50591;SDS011;36548;50.506;30.834;2022-12-29T00:02:41;17.30;;;13.47;;
50591;SDS011;36548;50.506;30.834;2022-12-29T00:03:50;18.33;;;13.85;;
50591;SDS011;36548;50.506;30.834;2022-12-29T00:05:01;17.45;;;15.20;;
50591;SDS011;36548;50.506;30.834;2022-12-29T00:06:11;17.53;;;14.02;;
50591;SDS011;36548;50.506;30.834;2022-12-29T00:07:20;17.30;;;14.28;;
50591;SDS011;36548;50.506;30.834;2022-12-29T00:08:29;18.57;;;14.75;;
50591;SDS011;36548;50.506;30.834;2022-12-29T00:09:49;17.20;;;14.63;;
50591;SDS011;36548;50.506;30.834;2022-12-29T00:10:58;18.77;;;14.35;;
50591;SDS011;36548;50.506;30.834;2022-12-29T00:12:08;18.17;;;13.80;;
50591;SDS011;36548;50.506;30.834;2022-12-29T00:13:17;17.90;;;14.00;;
50591;SDS011;36548;50.506;30.834;2022-12-29T00:14:44;17.95;;;13.90;;
50591;SDS011;36548;50.506;30.834;2022-12-29T00:16:11;16.47;;;13.23;;
50591;SDS011;36548;50.506;30.834;2022-12-29T00:17:20;18.90;;;13.15;;
50591;SDS011;36548;50.506;30.834;2022-12-29T00:18:29;17.33;;;13.33;;
50591;SDS011;36548;50.506;30.834;2022-12-29T00:19:41;19.50;;;14.92;;
50591;SDS011;36548;50.506;30.834;2022-12-29T00:21:16;16.50;;;14.00;;
50591;SDS011;36548;50.506;30.834;2022-12-29T00:22:45;16.57;;;12.78;;
50591;SDS011;36548;50.506;30.834;2022-12-29T00:24:18;16.42;;;13.76;;
50591;SDS011;36548;50.506;30.834;2022-12-29T00:25:35;15.90;;;13.02;;
50591;SDS011;36548;50.506;30.834;2022-12-29T00:28:33;15.75;;;12.45;;
50591;SDS011;36548;50.506;30.834;2022-12-29T00:30:00;16.65;;;12.23;;
50591;SDS011;36548;50.506;30.834;2022-12-29T00:31:27;15.18;;;11.97;;
50591;SDS011;36548;50.506;30.834;2022-12-29T00:32:55;17.03;;;12.05;;
50591;SDS011;36548;50.506;30.834;2022-12-29T00:34:25;15.67;;;13.15;;
50591;SDS011;36548;50.506;30.834;2022-12-29T00:35:57;15.27;;;12.98;;
50591;SDS011;36548;50.506;30.834;2022-12-29T00:37:14;17.47;;;13.52;;
50591;SDS011;36548;50.506;30.834;2022-12-29T00:38:25;14.70;;;13.12;;
50591;SDS011;36548;50.506;30.834;2022-12-29T00:39:54;17.10;;;12.85;;
50591;SDS011;36548;50.506;30.834;2022-12-29T00:41:26;15.37;;;12.43;;
50591;SDS011;36548;50.506;30.834;2022-12-29T00:42:53;15.37;;;12.10;;
50591;SDS011;36548;50.506;30.834;2022-12-29T00:44:20;17.90;;;12.45;;
50591;SDS011;36548;50.506;30.834;2022-12-29T00:45:30;16.70;;;11.48;;
50591;SDS011;36548;50.506;30.834;2022-12-29T00:46:39;15.40;;;11.90;;
50591;SDS011;36548;50.506;30.834;2022-12-29T00:47:51;13.63;;;11.12;;
50591;SDS011;36548;50.506;30.834;2022-12-29T00:49:07;14.15;;;11.80;;
50591;SDS011;36548;50.506;30.834;2022-12-29T00:50:36;12.85;;;10.60;;
50591;SDS011;36548;50.506;30.834;2022-12-29T00:51:54;16.00;;;12.87;;
50591;SDS011;36548;50.506;30.834;2022-12-29T00:53:03;17.73;;;11.98;;
50591;SDS011;36548;50.506;30.834;2022-12-29T00:54:12;17.05;;;12.52;;
50591;SDS011;36548;50.506;30.834;2022-12-29T00:55:22;16.00;;;11.90;;
50591;SDS011;36548;50.506;30.834;2022-12-29T00:56:37;13.88;;;11.45;;
50591;SDS011;36548;50.506;30.834;2022-12-29T00:57:47;14.95;;;11.30;;
50591;SDS011;36548;50.506;30.834;2022-12-29T00:58:59;16.88;;;12.37;;
50591;SDS011;36548;50.506;30.834;2022-12-29T01:00:14;16.08;;;13.07;;
50591;SDS011;36548;50.506;30.834;2022-12-29T01:01:24;14.65;;;11.65;;
50591;SDS011;36548;50.506;30.834;2022-12-29T01:02:34;15.80;;;11.73;;
50591;SDS011;36548;50.506;30.834;2022-12-29T01:03:45;15.35;;;11.80;;
50591;SDS011;36548;50.506;30.834;2022-12-29T01:05:00;13.76;;;11.56;;
50591;SDS011;36548;50.506;30.834;2022-12-29T01:06:10;17.07;;;12.37;;
50591;SDS011;36548;50.506;30.834;2022-12-29T01:07:19;14.77;;;12.55;;
50591;SDS011;36548;50.506;30.834;2022-12-29T01:08:28;14.23;;;11.52;;
50591;SDS011;36548;50.506;30.834;2022-12-29T01:09:38;15.25;;;12.27;;
50591;SDS011;36548;50.506;30.834;2022-12-29T01:11:11;15.52;;;11.70;;
50591;SDS011;36548;50.506;30.834;2022-12-29T01:12:22;14.65;;;11.88;;
50591;SDS011;36548;50.506;30.834;2022-12-29T01:13:33;14.15;;;12.03;;
50591;SDS011;36548;50.506;30.834;2022-12-29T01:14:45;17.38;;;13.05;;
50591;SDS011;36548;50.506;30.834;2022-12-29T01:15:54;13.08;;;11.23;;
50591;SDS011;36548;50.506;30.834;2022-12-29T01:17:04;13.60;;;11.30;;
50591;SDS011;36548;50.506;30.834;2022-12-29T01:18:15;14.95;;;12.65;;
50591;SDS011;36548;50.506;30.834;2022-12-29T01:19:24;15.17;;;11.65;;
50591;SDS011;36548;50.506;30.834;2022-12-29T01:20:37;14.23;;;11.00;;
50591;SDS011;36548;50.506;30.834;2022-12-29T01:21:46;15.73;;;11.57;;
50591;SDS011;36548;50.506;30.834;2022-12-29T01:22:58;14.08;;;11.25;;
50591;SDS011;36548;50.506;30.834;2022-12-29T01:24:06;15.47;;;12.32;;
50591;SDS011;36548;50.506;30.834;2022-12-29T01:25:15;14.17;;;11.33;;
50591;SDS011;36548;50.506;30.834;2022-12-29T01:26:27;22.10;;;12.20;;
50591;SDS011;36548;50.506;30.834;2022-12-29T01:27:36;13.45;;;12.05;;
50591;SDS011;36548;50.506;30.834;2022-12-29T01:28:46;16.28;;;11.72;;
50591;SDS011;36548;50.506;30.834;2022-12-29T01:29:55;14.03;;;11.77;;
50591;SDS011;36548;50.506;30.834;2022-12-29T01:31:06;14.60;;;11.70;;
50591;SDS011;36548;50.506;30.834;2022-12-29T01:32:18;14.48;;;11.78;;
50591;SDS011;36548;50.506;30.834;2022-12-29T01:33:28;14.23;;;11.15;;
50591;SDS011;36548;50.506;30.834;2022-12-29T01:34:36;15.63;;;11.80;;
50591;SDS011;36548;50.506;30.834;2022-12-29T01:35:46;14.68;;;10.82;;
50591;SDS011;36548;50.506;30.834;2022-12-29T01:36:55;13.78;;;11.00;;
50591;SDS011;36548;50.506;30.834;2022-12-29T01:38:08;12.17;;;10.37;;
50591;SDS011;36548;50.506;30.834;2022-12-29T01:39:18;14.13;;;10.23;;
50591;SDS011;36548;50.506;30.834;2022-12-29T01:40:27;13.70;;;10.67;;
50591;SDS011;36548;50.506;30.834;2022-12-29T01:41:37;16.62;;;11.32;;
50591;SDS011;36548;50.506;30.834;2022-12-29T01:42:45;12.58;;;10.75;;
50591;SDS011;36548;50.506;30.834;2022-12-29T01:43:55;13.03;;;10.40;;
50591;SDS011;36548;50.506;30.834;2022-12-29T01:45:08;13.88;;;9.73;;
50591;SDS011;36548;50.506;30.834;2022-12-29T01:47:55;17.25;;;11.05;;
50591;SDS011;36548;50.506;30.834;2022-12-29T01:50:33;12.22;;;9.47;;
50591;SDS011;36548;50.506;30.834;2022-12-29T01:51:53;11.73;;;9.37;;
50591;SDS011;36548;50.506;30.834;2022-12-29T01:53:11;10.05;;;9.03;;
50591;SDS011;36548;50.506;30.834;2022-12-29T01:54:33;9.65;;;8.32;;
50591;SDS011;36548;50.506;30.834;2022-12-29T01:55:52;13.37;;;8.88;;
50591;SDS011;36548;50.506;30.834;2022-12-29T01:57:08;10.47;;;8.40;;
50591;SDS011;36548;50.506;30.834;2022-12-29T01:58:31;12.43;;;8.38;;
50591;SDS011;36548;50.506;30.834;2022-12-29T01:59:52;12.43;;;9.00;;
50591;SDS011;36548;50.506;30.834;2022-12-29T02:01:03;12.92;;;9.42;;
50591;SDS011;36548;50.506;30.834;2022-12-29T02:02:16;9.78;;;8.78;;
50591;SDS011;36548;50.506;30.834;2022-12-29T02:03:26;10.65;;;8.45;;
50591;SDS011;36548;50.506;30.834;2022-12-29T02:04:40;9.22;;;7.70;;
50591;SDS011;36548;50.506;30.834;2022-12-29T02:05:58;10.78;;;8.78;;
50591;SDS011;36548;50.506;30.834;2022-12-29T02:07:11;10.42;;;8.20;;
50591;SDS011;36548;50.506;30.834;2022-12-29T02:08:29;11.18;;;8.73;;
50591;SDS011;36548;50.506;30.834;2022-12-29T02:09:39;11.70;;;7.93;;
50591;SDS011;36548;50.506;30.834;2022-12-29T02:10:52;12.27;;;8.23;;
50591;SDS011;36548;50.506;30.834;2022-12-29T02:12:03;9.47;;;7.35;;
50591;SDS011;36548;50.506;30.834;2022-12-29T02:13:16;8.50;;;7.53;;
50591;SDS011;36548;50.506;30.834;2022-12-29T02:14:26;9.37;;;8.07;;
50591;SDS011;36548;50.506;30.834;2022-12-29T02:15:48;10.00;;;8.17;;
50591;SDS011;36548;50.506;30.834;2022-12-29T02:17:14;10.88;;;7.67;;
50591;SDS011;36548;50.506;30.834;2022-12-29T02:18:48;7.75;;;6.55;;
50591;SDS011;36548;50.506;30.834;2022-12-29T02:37:23;9.62;;;7.62;;
50591;SDS011;36548;50.506;30.834;2022-12-29T02:39:59;9.03;;;7.07;;
50591;SDS011;36548;50.506;30.834;2022-12-29T02:41:16;9.97;;;7.22;;
50591;SDS011;36548;50.506;30.834;2022-12-29T02:46:51;8.62;;;7.72;;
50591;SDS011;36548;50.506;30.834;2022-12-29T02:49:45;7.42;;;6.68;;
50591;SDS011;36548;50.506;30.834;2022-12-29T02:51:05;8.57;;;7.65;;
50591;SDS011;36548;50.506;30.834;2022-12-29T02:52:26;12.03;;;8.60;;
50591;SDS011;36548;50.506;30.834;2022-12-29T02:53:47;9.30;;;8.25;;
50591;SDS011;36548;50.506;30.834;2022-12-29T02:55:16;10.50;;;8.05;;
50591;SDS011;36548;50.506;30.834;2022-12-29T02:56:26;10.40;;;8.75;;
50591;SDS011;36548;50.506;30.834;2022-12-29T02:57:41;11.90;;;9.00;;
50591;SDS011;36548;50.506;30.834;2022-12-29T02:58:50;9.88;;;8.52;;
50591;SDS011;36548;50.506;30.834;2022-12-29T03:00:01;11.38;;;9.22;;
50591;SDS011;36548;50.506;30.834;2022-12-29T03:01:21;11.63;;;10.35;;
50591;SDS011;36548;50.506;30.834;2022-12-29T03:05:43;9.08;;;8.15;;
50591;SDS011;36548;50.506;30.834;2022-12-29T03:10:10;8.33;;;7.38;;
50591;SDS011;36548;50.506;30.834;2022-12-29T03:11:37;9.18;;;7.20;;
50591;SDS011;36548;50.506;30.834;2022-12-29T03:16:33;8.60;;;6.80;;
50591;SDS011;36548;50.506;30.834;2022-12-29T03:17:58;9.16;;;7.30;;
50591;SDS011;36548;50.506;30.834;2022-12-29T03:19:36;8.27;;;6.58;;
50591;SDS011;36548;50.506;30.834;2022-12-29T03:20:52;8.20;;;6.45;;
50591;SDS011;36548;50.506;30.834;2022-12-29T03:22:13;9.18;;;7.20;;
50591;SDS011;36548;50.506;30.834;2022-12-29T03:23:41;8.77;;;6.55;;
50591;SDS011;36548;50.506;30.834;2022-12-29T03:25:17;9.98;;;7.10;;
50591;SDS011;36548;50.506;30.834;2022-12-29T03:26:34;10.07;;;6.27;;
50591;SDS011;36548;50.506;30.834;2022-12-29T03:27:48;7.27;;;5.85;;
50591;SDS011;36548;50.506;30.834;2022-12-29T03:29:06;7.72;;;5.78;;
50591;SDS011;36548;50.506;30.834;2022-12-29T03:30:19;8.07;;;6.23;;
50591;SDS011;36548;50.506;30.834;2022-12-29T03:31:30;8.10;;;6.55;;
50591;SDS011;36548;50.506;30.834;2022-12-29T03:32:45;9.12;;;6.37;;
50591;SDS011;36548;50.506;30.834;2022-12-29T03:34:00;8.85;;;6.55;;
50591;SDS011;36548;50.506;30.834;2022-12-29T03:35:11;6.04;;;5.36;;
50591;SDS011;36548;50.506;30.834;2022-12-29T03:36:26;8.60;;;6.10;;
50591;SDS011;36548;50.506;30.834;2022-12-29T03:39:25;7.88;;;6.17;;
50591;SDS011;36548;50.506;30.834;2022-12-29T03:40:38;8.27;;;6.58;;
50591;SDS011;36548;50.506;30.834;2022-12-29T03:41:54;7.37;;;6.00;;
50591;SDS011;36548;50.506;30.834;2022-12-29T03:43:05;8.88;;;6.15;;
50591;SDS011;36548;50.506;30.834;2022-12-29T03:44:16;8.92;;;6.65;;
50591;SDS011;36548;50.506;30.834;2022-12-29T03:45:26;6.45;;;5.60;;
50591;SDS011;36548;50.506;30.834;2022-12-29T03:46:36;8.38;;;6.62;;
50591;SDS011;36548;50.506;30.834;2022-12-29T03:47:46;6.85;;;6.15;;
50591;SDS011;36548;50.506;30.834;2022-12-29T03:48:57;7.90;;;6.75;;
50591;SDS011;36548;50.506;30.834;2022-12-29T03:50:07;6.67;;;5.93;;
50591;SDS011;36548;50.506;30.834;2022-12-29T03:51:19;9.57;;;6.47;;
50591;SDS011;36548;50.506;30.834;2022-12-29T03:52:28;7.60;;;6.58;;
50591;SDS011;36548;50.506;30.834;2022-12-29T03:53:37;7.12;;;5.73;;
50591;SDS011;36548;50.506;30.834;2022-12-29T03:54:50;8.50;;;6.52;;
50591;SDS011;36548;50.506;30.834;2022-12-29T03:56:10;8.63;;;6.47;;
50591;SDS011;36548;50.506;30.834;2022-12-29T03:57:19;8.12;;;6.77;;
50591;SDS011;36548;50.506;30.834;2022-12-29T03:58:32;11.10;;;7.12;;
50591;SDS011;36548;50.506;30.834;2022-12-29T03:59:44;8.05;;;6.60;;
50591;SDS011;36548;50.506;30.834;2022-12-29T04:00:53;7.78;;;6.28;;
50591;SDS011;36548;50.506;30.834;2022-12-29T04:02:03;8.90;;;7.20;;
50591;SDS011;36548;50.506;30.834;2022-12-29T04:03:13;8.05;;;6.85;;
50591;SDS011;36548;50.506;30.834;2022-12-29T04:04:22;8.65;;;6.80;;
50591;SDS011;36548;50.506;30.834;2022-12-29T04:05:31;9.42;;;6.75;;
50591;SDS011;36548;50.506;30.834;2022-12-29T04:06:41;8.05;;;7.05;;
50591;SDS011;36548;50.506;30.834;2022-12-29T04:07:52;7.97;;;6.72;;
50591;SDS011;36548;50.506;30.834;2022-12-29T04:09:04;8.65;;;7.02;;
50591;SDS011;36548;50.506;30.834;2022-12-29T04:10:17;8.57;;;6.83;;
50591;SDS011;36548;50.506;30.834;2022-12-29T04:11:29;9.50;;;7.50;;
50591;SDS011;36548;50.506;30.834;2022-12-29T04:12:42;8.25;;;6.78;;
50591;SDS011;36548;50.506;30.834;2022-12-29T04:13:51;9.72;;;6.88;;
50591;SDS011;36548;50.506;30.834;2022-12-29T04:15:02;12.67;;;7.42;;
50591;SDS011;36548;50.506;30.834;2022-12-29T04:16:14;8.58;;;6.88;;
50591;SDS011;36548;50.506;30.834;2022-12-29T04:17:23;10.05;;;7.57;;
50591;SDS011;36548;50.506;30.834;2022-12-29T04:19:44;8.48;;;6.80;;
50591;SDS011;36548;50.506;30.834;2022-12-29T04:20:53;8.95;;;7.78;;
50591;SDS011;36548;50.506;30.834;2022-12-29T04:22:10;9.42;;;7.25;;
50591;SDS011;36548;50.506;30.834;2022-12-29T04:23:21;9.38;;;7.58;;
50591;SDS011;36548;50.506;30.834;2022-12-29T04:24:30;8.53;;;7.67;;
50591;SDS011;36548;50.506;30.834;2022-12-29T04:25:38;8.82;;;7.97;;
50591;SDS011;36548;50.506;30.834;2022-12-29T04:26:50;8.70;;;7.42;;
50591;SDS011;36548;50.506;30.834;2022-12-29T04:28:17;8.82;;;7.32;;
50591;SDS011;36548;50.506;30.834;2022-12-29T04:29:41;8.02;;;7.07;;
50591;SDS011;36548;50.506;30.834;2022-12-29T04:30:55;9.23;;;7.10;;
50591;SDS011;36548;50.506;30.834;2022-12-29T04:32:12;10.35;;;7.75;;
50591;SDS011;36548;50.506;30.834;2022-12-29T04:33:24;10.35;;;7.70;;
50591;SDS011;36548;50.506;30.834;2022-12-29T04:34:34;11.26;;;8.52;;
50591;SDS011;36548;50.506;30.834;2022-12-29T04:35:49;10.27;;;7.13;;
50591;SDS011;36548;50.506;30.834;2022-12-29T04:37:01;9.33;;;7.22;;
50591;SDS011;36548;50.506;30.834;2022-12-29T04:38:11;11.07;;;7.97;;
50591;SDS011;36548;50.506;30.834;2022-12-29T04:39:22;9.15;;;7.95;;
50591;SDS011;36548;50.506;30.834;2022-12-29T04:40:31;8.67;;;7.42;;
50591;SDS011;36548;50.506;30.834;2022-12-29T04:41:42;9.68;;;7.73;;
50591;SDS011;36548;50.506;30.834;2022-12-29T04:42:52;8.72;;;7.58;;
50591;SDS011;36548;50.506;30.834;2022-12-29T04:44:08;9.43;;;7.77;;
50591;SDS011;36548;50.506;30.834;2022-12-29T04:45:28;9.98;;;7.33;;
50591;SDS011;36548;50.506;30.834;2022-12-29T04:46:43;9.45;;;7.47;;
50591;SDS011;36548;50.506;30.834;2022-12-29T04:47:53;9.97;;;8.40;;
50591;SDS011;36548;50.506;30.834;2022-12-29T04:49:07;10.22;;;7.78;;
50591;SDS011;36548;50.506;30.834;2022-12-29T04:50:29;13.05;;;8.33;;
50591;SDS011;36548;50.506;30.834;2022-12-29T04:51:44;9.47;;;8.37;;
50591;SDS011;36548;50.506;30.834;2022-12-29T04:52:54;10.60;;;8.37;;
50591;SDS011;36548;50.506;30.834;2022-12-29T04:54:03;12.43;;;8.70;;
50591;SDS011;36548;50.506;30.834;2022-12-29T04:55:18;9.30;;;8.08;;
50591;SDS011;36548;50.506;30.834;2022-12-29T04:56:28;8.85;;;7.95;;
50591;SDS011;36548;50.506;30.834;2022-12-29T04:57:39;9.57;;;7.52;;
50591;SDS011;36548;50.506;30.834;2022-12-29T04:58:48;8.83;;;8.03;;
50591;SDS011;36548;50.506;30.834;2022-12-29T05:00:01;9.98;;;8.38;;
50591;SDS011;36548;50.506;30.834;2022-12-29T05:01:11;10.10;;;7.85;;
50591;SDS011;36548;50.506;30.834;2022-12-29T05:02:21;10.55;;;8.20;;
50591;SDS011;36548;50.506;30.834;2022-12-29T05:03:32;9.80;;;7.55;;
50591;SDS011;36548;50.506;30.834;2022-12-29T05:04:42;9.00;;;7.55;;
50591;SDS011;36548;50.506;30.834;2022-12-29T05:05:54;9.95;;;7.65;;
50591;SDS011;36548;50.506;30.834;2022-12-29T05:07:05;9.83;;;7.12;;
50591;SDS011;36548;50.506;30.834;2022-12-29T05:08:15;8.23;;;7.30;;
50591;SDS011;36548;50.506;30.834;2022-12-29T05:09:28;9.00;;;7.63;;
50591;SDS011;36548;50.506;30.834;2022-12-29T05:10:45;8.70;;;6.98;;
50591;SDS011;36548;50.506;30.834;2022-12-29T05:11:56;8.72;;;6.92;;
50591;SDS011;36548;50.506;30.834;2022-12-29T05:13:06;9.57;;;7.38;;
50591;SDS011;36548;50.506;30.834;2022-12-29T05:14:15;9.84;;;7.06;;
50591;SDS011;36548;50.506;30.834;2022-12-29T05:16:37;10.52;;;7.48;;
50591;SDS011;36548;50.506;30.834;2022-12-29T05:17:46;10.37;;;7.22;;
50591;SDS011;36548;50.506;30.834;2022-12-29T05:18:55;8.27;;;7.12;;
50591;SDS011;36548;50.506;30.834;2022-12-29T05:20:05;8.93;;;6.35;;
50591;SDS011;36548;50.506;30.834;2022-12-29T05:21:22;8.27;;;6.92;;
50591;SDS011;36548;50.506;30.834;2022-12-29T05:22:32;8.55;;;7.45;;
50591;SDS011;36548;50.506;30.834;2022-12-29T05:23:41;9.78;;;7.88;;
50591;SDS011;36548;50.506;30.834;2022-12-29T05:24:50;8.90;;;7.87;;
50591;SDS011;36548;50.506;30.834;2022-12-29T05:25:59;8.78;;;7.95;;
50591;SDS011;36548;50.506;30.834;2022-12-29T05:27:10;9.08;;;7.37;;
50591;SDS011;36548;50.506;30.834;2022-12-29T05:28:45;9.85;;;7.65;;
50591;SDS011;36548;50.506;30.834;2022-12-29T05:29:56;8.70;;;7.45;;
50591;SDS011;36548;50.506;30.834;2022-12-29T05:31:06;9.80;;;7.60;;
50591;SDS011;36548;50.506;30.834;2022-12-29T05:32:15;9.46;;;7.46;;
50591;SDS011;36548;50.506;30.834;2022-12-29T05:33:27;13.30;;;7.67;;
50591;SDS011;36548;50.506;30.834;2022-12-29T05:34:36;8.22;;;6.72;;
50591;SDS011;36548;50.506;30.834;2022-12-29T05:35:46;10.45;;;7.05;;
50591;SDS011;36548;50.506;30.834;2022-12-29T05:36:56;9.20;;;7.12;;
50591;SDS011;36548;50.506;30.834;2022-12-29T05:38:05;9.60;;;7.43;;
50591;SDS011;36548;50.506;30.834;2022-12-29T05:39:15;9.73;;;7.87;;
50591;SDS011;36548;50.506;30.834;2022-12-29T05:40:26;10.45;;;8.10;;
50591;SDS011;36548;50.506;30.834;2022-12-29T05:42:47;8.18;;;7.03;;
50591;SDS011;36548;50.506;30.834;2022-12-29T05:44:11;9.05;;;7.43;;
50591;SDS011;36548;50.506;30.834;2022-12-29T05:45:27;10.03;;;7.77;;
50591;SDS011;36548;50.506;30.834;2022-12-29T05:46:38;11.92;;;8.30;;
50591;SDS011;36548;50.506;30.834;2022-12-29T05:47:52;10.35;;;8.27;;
50591;SDS011;36548;50.506;30.834;2022-12-29T05:49:07;10.23;;;8.27;;
50591;SDS011;36548;50.506;30.834;2022-12-29T05:50:20;10.92;;;9.77;;
50591;SDS011;36548;50.506;30.834;2022-12-29T05:51:48;10.35;;;7.67;;
50591;SDS011;36548;50.506;30.834;2022-12-29T05:54:08;11.28;;;7.35;;
50591;SDS011;36548;50.506;30.834;2022-12-29T05:55:18;11.45;;;8.27;;
50591;SDS011;36548;50.506;30.834;2022-12-29T05:56:29;11.20;;;8.00;;
50591;SDS011;36548;50.506;30.834;2022-12-29T05:57:42;9.82;;;8.75;;
50591;SDS011;36548;50.506;30.834;2022-12-29T05:58:53;10.97;;;8.52;;
50591;SDS011;36548;50.506;30.834;2022-12-29T06:00:04;11.00;;;7.97;;
50591;SDS011;36548;50.506;30.834;2022-12-29T06:01:16;10.25;;;8.10;;
50591;SDS011;36548;50.506;30.834;2022-12-29T06:02:26;8.87;;;6.93;;
50591;SDS011;36548;50.506;30.834;2022-12-29T06:03:35;11.10;;;7.68;;
50591;SDS011;36548;50.506;30.834;2022-12-29T06:04:44;8.25;;;7.38;;
50591;SDS011;36548;50.506;30.834;2022-12-29T06:05:53;9.58;;;8.08;;
50591;SDS011;36548;50.506;30.834;2022-12-29T06:07:03;17.67;;;8.05;;
50591;SDS011;36548;50.506;30.834;2022-12-29T06:08:20;8.75;;;7.85;;
50591;SDS011;36548;50.506;30.834;2022-12-29T06:09:30;10.60;;;8.47;;
50591;SDS011;36548;50.506;30.834;2022-12-29T06:10:40;56.33;;;11.08;;
50591;SDS011;36548;50.506;30.834;2022-12-29T06:11:49;17.80;;;8.72;;
50591;SDS011;36548;50.506;30.834;2022-12-29T06:12:59;11.07;;;7.72;;
50591;SDS011;36548;50.506;30.834;2022-12-29T06:14:11;10.95;;;7.93;;
50591;SDS011;36548;50.506;30.834;2022-12-29T06:15:21;9.12;;;7.70;;
50591;SDS011;36548;50.506;30.834;2022-12-29T06:16:31;9.60;;;7.70;;
50591;SDS011;36548;50.506;30.834;2022-12-29T06:17:43;9.72;;;7.48;;
50591;SDS011;36548;50.506;30.834;2022-12-29T06:18:53;8.85;;;7.70;;
50591;SDS011;36548;50.506;30.834;2022-12-29T06:20:03;11.17;;;8.47;;
50591;SDS011;36548;50.506;30.834;2022-12-29T06:21:13;10.58;;;8.62;;
50591;SDS011;36548;50.506;30.834;2022-12-29T06:22:22;10.43;;;7.70;;
50591;SDS011;36548;50.506;30.834;2022-12-29T06:23:31;10.30;;;8.08;;
50591;SDS011;36548;50.506;30.834;2022-12-29T06:24:42;10.45;;;8.15;;
50591;SDS011;36548;50.506;30.834;2022-12-29T06:25:51;11.25;;;7.75;;
50591;SDS011;36548;50.506;30.834;2022-12-29T06:27:01;12.08;;;8.22;;
50591;SDS011;36548;50.506;30.834;2022-12-29T06:28:10;13.12;;;8.55;;
50591;SDS011;36548;50.506;30.834;2022-12-29T06:29:19;9.27;;;7.75;;
50591;SDS011;36548;50.506;30.834;2022-12-29T06:30:29;10.13;;;7.77;;
50591;SDS011;36548;50.506;30.834;2022-12-29T06:31:39;15.07;;;9.05;;
50591;SDS011;36548;50.506;30.834;2022-12-29T06:32:48;11.90;;;8.25;;
50591;SDS011;36548;50.506;30.834;2022-12-29T06:33:58;13.35;;;8.87;;
50591;SDS011;36548;50.506;30.834;2022-12-29T06:35:10;11.68;;;8.73;;
50591;SDS011;36548;50.506;30.834;2022-12-29T06:36:24;12.95;;;8.83;;
50591;SDS011;36548;50.506;30.834;2022-12-29T06:37:33;8.92;;;7.97;;
50591;SDS011;36548;50.506;30.834;2022-12-29T06:38:42;12.05;;;8.48;;
50591;SDS011;36548;50.506;30.834;2022-12-29T06:39:52;7.53;;;6.05;;
50591;SDS011;36548;50.506;30.834;2022-12-29T06:41:02;11.10;;;7.70;;
50591;SDS011;36548;50.506;30.834;2022-12-29T06:42:16;11.32;;;8.33;;
50591;SDS011;36548;50.506;30.834;2022-12-29T06:43:32;9.00;;;7.52;;
50591;SDS011;36548;50.506;30.834;2022-12-29T06:44:44;12.58;;;8.48;;
50591;SDS011;36548;50.506;30.834;2022-12-29T06:45:53;10.20;;;8.02;;
50591;SDS011;36548;50.506;30.834;2022-12-29T06:47:03;10.87;;;8.27;;
50591;SDS011;36548;50.506;30.834;2022-12-29T06:48:13;16.50;;;9.25;;
50591;SDS011;36548;50.506;30.834;2022-12-29T06:49:22;10.75;;;8.25;;
50591;SDS011;36548;50.506;30.834;2022-12-29T06:50:31;11.53;;;8.63;;
50591;SDS011;36548;50.506;30.834;2022-12-29T06:51:41;11.93;;;8.87;;
50591;SDS011;36548;50.506;30.834;2022-12-29T06:52:56;11.07;;;9.42;;
50591;SDS011;36548;50.506;30.834;2022-12-29T06:54:06;8.80;;;7.60;;
50591;SDS011;36548;50.506;30.834;2022-12-29T06:55:15;10.33;;;7.70;;
50591;SDS011;36548;50.506;30.834;2022-12-29T06:56:24;10.47;;;8.88;;
50591;SDS011;36548;50.506;30.834;2022-12-29T06:57:33;10.40;;;8.98;;
50591;SDS011;36548;50.506;30.834;2022-12-29T06:58:42;11.60;;;9.12;;
50591;SDS011;36548;50.506;30.834;2022-12-29T06:59:51;10.13;;;8.53;;
50591;SDS011;36548;50.506;30.834;2022-12-29T07:01:03;9.55;;;7.80;;
50591;SDS011;36548;50.506;30.834;2022-12-29T07:02:13;12.43;;;9.20;;
50591;SDS011;36548;50.506;30.834;2022-12-29T07:03:24;10.40;;;8.67;;
50591;SDS011;36548;50.506;30.834;2022-12-29T07:15:36;17.00;;;9.45;;
50591;SDS011;36548;50.506;30.834;2022-12-29T07:16:52;12.48;;;9.13;;
50591;SDS011;36548;50.506;30.834;2022-12-29T07:18:02;13.20;;;10.23;;
50591;SDS011;36548;50.506;30.834;2022-12-29T07:19:11;12.93;;;9.72;;
50591;SDS011;36548;50.506;30.834;2022-12-29T07:20:26;11.28;;;8.97;;
50591;SDS011;36548;50.506;30.834;2022-12-29T07:21:37;11.78;;;9.77;;
50591;SDS011;36548;50.506;30.834;2022-12-29T07:22:54;13.82;;;10.57;;
50591;SDS011;36548;50.506;30.834;2022-12-29T07:24:04;13.28;;;9.87;;
50591;SDS011;36548;50.506;30.834;2022-12-29T07:25:14;13.22;;;9.57;;
50591;SDS011;36548;50.506;30.834;2022-12-29T07:26:25;11.05;;;8.90;;
50591;SDS011;36548;50.506;30.834;2022-12-29T07:27:42;13.70;;;9.86;;
50591;SDS011;36548;50.506;30.834;2022-12-29T07:28:51;11.80;;;9.35;;
50591;SDS011;36548;50.506;30.834;2022-12-29T07:30:00;10.82;;;8.97;;
50591;SDS011;36548;50.506;30.834;2022-12-29T07:31:12;10.30;;;8.90;;
50591;SDS011;36548;50.506;30.834;2022-12-29T07:32:25;11.08;;;9.02;;
50591;SDS011;36548;50.506;30.834;2022-12-29T07:33:40;12.32;;;9.43;;
50591;SDS011;36548;50.506;30.834;2022-12-29T07:34:49;14.45;;;9.52;;
50591;SDS011;36548;50.506;30.834;2022-12-29T07:35:58;14.83;;;10.30;;
50591;SDS011;36548;50.506;30.834;2022-12-29T07:37:15;12.60;;;9.70;;
50591;SDS011;36548;50.506;30.834;2022-12-29T07:38:24;12.15;;;9.80;;
50591;SDS011;36548;50.506;30.834;2022-12-29T07:39:34;12.13;;;9.55;;
50591;SDS011;36548;50.506;30.834;2022-12-29T07:40:43;12.93;;;9.97;;
50591;SDS011;36548;50.506;30.834;2022-12-29T07:41:58;10.18;;;9.13;;
50591;SDS011;36548;50.506;30.834;2022-12-29T07:43:11;11.37;;;9.63;;
50591;SDS011;36548;50.506;30.834;2022-12-29T07:44:22;11.10;;;9.35;;
50591;SDS011;36548;50.506;30.834;2022-12-29T07:45:40;12.32;;;10.82;;
50591;SDS011;36548;50.506;30.834;2022-12-29T07:46:49;11.88;;;10.00;;
50591;SDS011;36548;50.506;30.834;2022-12-29T07:48:01;10.50;;;9.10;;
50591;SDS011;36548;50.506;30.834;2022-12-29T07:49:12;12.20;;;10.20;;
50591;SDS011;36548;50.506;30.834;2022-12-29T07:50:20;11.48;;;9.38;;
50591;SDS011;36548;50.506;30.834;2022-12-29T07:51:29;11.57;;;10.13;;
50591;SDS011;36548;50.506;30.834;2022-12-29T07:52:39;13.28;;;10.02;;
50591;SDS011;36548;50.506;30.834;2022-12-29T07:53:48;13.52;;;9.85;;
50591;SDS011;36548;50.506;30.834;2022-12-29T07:54:56;12.87;;;10.13;;
50591;SDS011;36548;50.506;30.834;2022-12-29T07:56:07;11.18;;;9.22;;
50591;SDS011;36548;50.506;30.834;2022-12-29T07:57:16;11.90;;;10.13;;
50591;SDS011;36548;50.506;30.834;2022-12-29T07:58:25;11.38;;;9.40;;
50591;SDS011;36548;50.506;30.834;2022-12-29T07:59:34;10.03;;;8.98;;
50591;SDS011;36548;50.506;30.834;2022-12-29T08:00:43;13.27;;;10.28;;
50591;SDS011;36548;50.506;30.834;2022-12-29T08:01:51;13.48;;;10.37;;
50591;SDS011;36548;50.506;30.834;2022-12-29T08:03:01;13.30;;;10.00;;
50591;SDS011;36548;50.506;30.834;2022-12-29T08:04:10;12.30;;;10.78;;
50591;SDS011;36548;50.506;30.834;2022-12-29T08:05:20;14.55;;;10.68;;